Time;durP1;ratioP1;P1;durP2;ratioP2;P2;SDS_P1;SDS_P2;PMS_P1;PMS_P2;Temp;Humidity;BMP_temperature;BMP_pressure;BME280_temperature;BME280_humidity;BME280_pressure;Samples;Min_cycle;Max_cycle;Signal;HPM_P1;HPM_P2
2022/07/01 00:00:11;;;;;;;15.30;9.40;;;;;;;26.55;59.44;99384.06;4336283;33;34789;-75
2022/07/01 00:02:58;;;;;;;14.87;9.68;;;;;;;26.23;60.71;99390.94;4336757;33;34110;-75
2022/07/01 00:05:45;;;;;;;14.38;9.85;;;;;;;26.07;61.84;99397.19;4319612;33;35062;-75
2022/07/01 00:08:31;;;;;;;12.55;8.25;;;;;;;26.03;61.94;99394.41;4339211;33;37208;-74
2022/07/01 00:11:18;;;;;;;13.70;8.35;;;;;;;26.02;60.22;99392.06;4335130;33;33870;-75
2022/07/01 00:14:04;;;;;;;11.88;7.93;;;;;;;25.43;62.23;99395.94;4324529;33;38258;-75
2022/07/01 00:16:51;;;;;;;14.25;8.30;;;;;;;25.40;62.44;99398.78;4316980;33;35130;-74
2022/07/01 00:19:37;;;;;;;11.35;8.20;;;;;;;25.70;61.68;99398.84;4332446;33;34572;-75
2022/07/01 00:22:27;;;;;;;12.18;7.97;;;;;;;25.72;60.84;99387.97;4339607;33;34714;-75
2022/07/01 00:25:13;;;;;;;15.80;8.05;;;;;;;25.94;59.79;99385.72;4333964;33;34372;-74
2022/07/01 00:28:00;;;;;;;11.02;7.37;;;;;;;26.12;58.71;99388.28;4336934;33;34029;-74
2022/07/01 00:30:46;;;;;;;12.15;8.00;;;;;;;26.27;58.17;99383.28;4321120;33;35561;-75
2022/07/01 00:33:32;;;;;;;12.75;8.27;;;;;;;26.36;57.79;99394.78;4340971;33;36008;-75
2022/07/01 00:36:19;;;;;;;10.80;7.75;;;;;;;26.19;58.38;99393.03;4332859;33;34565;-75
2022/07/01 00:39:05;;;;;;;12.82;7.70;;;;;;;25.93;59.27;99388.97;4340572;33;34230;-75
2022/07/01 00:41:51;;;;;;;14.20;7.97;;;;;;;26.00;59.40;99388.88;4334314;33;33566;-75
2022/07/01 00:44:41;;;;;;;11.48;8.35;;;;;;;25.76;59.88;99391.56;4335924;33;36063;-75
2022/07/01 00:47:27;;;;;;;12.37;8.07;;;;;;;25.78;59.86;99393.91;4336173;33;35142;-75
2022/07/01 00:50:15;;;;;;;14.60;8.40;;;;;;;25.76;60.12;99391.56;4325786;32;34963;-75
2022/07/01 00:53:01;;;;;;;12.65;7.90;;;;;;;25.23;61.27;99386.56;4333590;33;35271;-75
2022/07/01 00:55:49;;;;;;;10.40;8.10;;;;;;;25.32;61.82;99384.84;4331569;33;35200;-75
2022/07/01 00:58:36;;;;;;;10.75;7.43;;;;;;;25.00;62.88;99387.16;4324072;33;34682;-75
2022/07/01 01:01:22;;;;;;;12.98;8.05;;;;;;;24.74;63.35;99383.00;4325091;33;33818;-75
2022/07/01 01:04:09;;;;;;;12.45;8.35;;;;;;;25.32;61.02;99381.25;4336326;33;35146;-75
2022/07/01 01:06:56;;;;;;;10.63;8.18;;;;;;;25.28;61.62;99383.31;4341380;33;36013;-75
2022/07/01 01:09:42;;;;;;;14.07;7.93;;;;;;;24.72;63.48;99385.41;4323133;33;34597;-75
2022/07/01 01:12:29;;;;;;;11.30;7.37;;;;;;;23.80;67.20;99388.38;4326369;33;34124;-75
2022/07/01 01:15:19;;;;;;;14.52;7.95;;;;;;;24.25;65.92;99391.31;4340402;32;33411;-75
2022/07/01 01:18:06;;;;;;;11.35;7.15;;;;;;;24.52;64.70;99390.75;4339356;33;35010;-75
2022/07/01 01:20:53;;;;;;;11.02;6.97;;;;;;;24.96;62.92;99398.41;4326443;33;35416;-75
2022/07/01 01:23:41;;;;;;;11.30;7.12;;;;;;;25.10;62.14;99391.84;4321681;33;34866;-75
2022/07/01 01:26:27;;;;;;;11.00;6.75;;;;;;;25.35;60.84;99384.00;4333758;33;34415;-75
2022/07/01 01:29:14;;;;;;;11.50;7.22;;;;;;;25.43;60.88;99390.34;4337092;32;34534;-75
2022/07/01 01:31:59;;;;;;;10.40;7.78;;;;;;;25.39;60.96;99383.97;4324462;33;34106;-75
2022/07/01 01:34:46;;;;;;;11.52;7.65;;;;;;;25.33;61.33;99391.25;4322333;33;34155;-75
2022/07/01 01:37:32;;;;;;;14.00;8.10;;;;;;;25.29;61.66;99401.72;4332560;33;35226;-74
2022/07/01 01:40:18;;;;;;;8.32;7.20;;;;;;;25.16;62.38;99401.44;4336309;32;35603;-75
2022/07/01 01:43:04;;;;;;;12.37;7.90;;;;;;;25.12;63.02;99401.44;4311303;33;34311;-75
2022/07/01 01:45:51;;;;;;;12.82;7.72;;;;;;;24.68;64.23;99397.44;4337726;33;35678;-75
2022/07/01 01:48:37;;;;;;;11.43;7.75;;;;;;;24.94;63.17;99397.22;4338417;33;34683;-75
2022/07/01 01:51:24;;;;;;;9.57;7.50;;;;;;;25.00;62.79;99396.34;4325843;33;35744;-75
2022/07/01 01:54:10;;;;;;;13.85;6.90;;;;;;;25.01;62.98;99392.34;4336364;33;35587;-75
2022/07/01 01:56:57;;;;;;;9.85;7.62;;;;;;;24.96;64.03;99389.19;4333288;33;34230;-75
2022/07/01 01:59:43;;;;;;;11.18;7.18;;;;;;;24.60;65.75;99390.28;4327111;33;35631;-75
2022/07/01 02:02:29;;;;;;;11.00;7.50;;;;;;;24.21;66.96;99384.94;4328818;33;34857;-75
2022/07/01 02:05:16;;;;;;;12.48;8.18;;;;;;;24.42;65.64;99387.59;4338331;33;34542;-75
2022/07/01 02:08:03;;;;;;;12.65;7.55;;;;;;;24.83;63.79;99383.31;4339118;33;34130;-75
2022/07/01 02:10:49;;;;;;;13.68;7.68;;;;;;;24.93;62.88;99379.59;4329799;33;35205;-75
2022/07/01 02:13:40;;;;;;;13.13;7.78;;;;;;;24.41;64.86;99380.41;4324507;33;34934;-74
2022/07/01 02:16:28;;;;;;;12.13;7.68;;;;;;;24.19;66.34;99382.56;4322746;33;34677;-74
2022/07/01 02:19:14;;;;;;;14.25;8.05;;;;;;;23.98;67.52;99382.69;4322572;33;33823;-74
2022/07/01 02:22:01;;;;;;;10.32;7.32;;;;;;;22.95;73.36;99380.97;4336822;33;34697;-75
2022/07/01 02:24:47;;;;;;;10.55;7.20;;;;;;;23.67;69.39;99385.19;4341204;33;34640;-74
2022/07/01 02:27:33;;;;;;;10.50;7.78;;;;;;;24.43;65.99;99385.63;4336450;33;34352;-74
2022/07/01 02:30:19;;;;;;;12.25;6.80;;;;;;;24.60;65.00;99379.09;4326649;33;33734;-74
2022/07/01 02:33:06;;;;;;;13.90;7.10;;;;;;;24.69;64.67;99387.81;4332081;33;35769;-75
2022/07/01 02:35:52;;;;;;;8.90;6.80;;;;;;;24.63;64.85;99395.06;4330333;33;34582;-75
2022/07/01 02:38:39;;;;;;;11.80;7.25;;;;;;;24.62;64.74;99387.88;4336633;33;35744;-75
2022/07/01 02:41:25;;;;;;;10.40;6.95;;;;;;;24.63;64.54;99397.06;4337829;33;34409;-74
2022/07/01 02:44:11;;;;;;;13.05;7.30;;;;;;;24.59;64.79;99399.91;4332525;33;34329;-74
2022/07/01 02:46:58;;;;;;;12.70;7.72;;;;;;;24.54;64.92;99397.53;4341455;33;34914;-75
2022/07/01 02:49:45;;;;;;;11.02;7.60;;;;;;;23.83;68.74;99400.75;4343437;33;33630;-75
2022/07/01 02:52:32;;;;;;;10.93;6.87;;;;;;;24.37;66.22;99404.03;4341218;33;34637;-75
2022/07/01 02:55:18;;;;;;;12.43;6.97;;;;;;;24.50;65.34;99402.34;4330998;33;35594;-74
2022/07/01 02:58:04;;;;;;;10.90;6.90;;;;;;;24.41;65.49;99410.41;4340143;33;33939;-74
2022/07/01 03:00:52;;;;;;;14.32;8.02;;;;;;;24.55;65.08;99404.72;4330580;33;34599;-74
2022/07/01 03:03:39;;;;;;;8.77;6.75;;;;;;;24.62;65.14;99407.50;4334502;33;34133;-74
2022/07/01 03:06:25;;;;;;;11.82;7.20;;;;;;;24.42;65.90;99414.81;4340796;33;34713;-75
2022/07/01 03:09:11;;;;;;;14.20;7.00;;;;;;;24.51;65.54;99409.56;4321631;33;35706;-74
2022/07/01 03:11:58;;;;;;;9.60;6.95;;;;;;;24.46;65.74;99412.81;4338083;33;34610;-75
2022/07/01 03:14:44;;;;;;;12.15;7.30;;;;;;;24.40;66.08;99411.63;4335644;33;33717;-74
2022/07/01 03:17:31;;;;;;;14.07;7.30;;;;;;;24.50;65.68;99412.78;4329779;33;34738;-74
2022/07/01 03:20:23;;;;;;;10.10;6.55;;;;;;;23.80;68.30;99416.34;4324526;33;35028;-74
2022/07/01 03:23:09;;;;;;;11.90;7.10;;;;;;;23.62;70.96;99424.75;4329874;33;34253;-75
2022/07/01 03:25:55;;;;;;;14.93;7.28;;;;;;;23.27;72.17;99436.81;4333198;33;34189;-74
2022/07/01 03:28:42;;;;;;;10.68;6.97;;;;;;;23.71;70.27;99436.34;4339192;33;35323;-75
2022/07/01 03:31:28;;;;;;;11.88;6.85;;;;;;;23.14;73.15;99442.03;4338083;33;35120;-74
2022/07/01 03:34:14;;;;;;;12.82;7.03;;;;;;;23.56;71.39;99448.75;4338914;33;34593;-75
2022/07/01 03:37:00;;;;;;;10.70;7.03;;;;;;;22.99;74.11;99454.41;4331782;33;35195;-75
2022/07/01 03:39:47;;;;;;;14.55;7.28;;;;;;;23.75;70.25;99453.91;4331342;33;34178;-75
2022/07/01 03:42:34;;;;;;;10.90;7.15;;;;;;;24.05;68.97;99455.41;4336541;33;36987;-75
2022/07/01 03:45:20;;;;;;;10.90;6.93;;;;;;;24.32;67.90;99452.84;4338823;33;34773;-76
2022/07/01 03:48:07;;;;;;;10.45;6.87;;;;;;;24.74;66.17;99465.03;4339111;33;33796;-76
2022/07/01 03:50:53;;;;;;;11.35;6.90;;;;;;;24.81;65.25;99467.75;4325156;33;34721;-77
2022/07/01 03:56:44;;;;;;;12.70;7.40;;;;;;;24.90;65.40;99478.50;4333298;33;34574;-77
2022/07/01 03:59:32;;;;;;;12.45;7.97;;;;;;;24.30;68.11;99479.66;4335666;33;34071;-77
2022/07/01 04:02:18;;;;;;;12.10;7.65;;;;;;;24.54;67.59;99475.97;4328325;33;35514;-77
2022/07/01 04:05:05;;;;;;;14.05;8.23;;;;;;;24.86;66.76;99475.75;4337992;33;36033;-77
2022/07/01 04:07:52;;;;;;;12.30;8.05;;;;;;;24.96;66.33;99479.69;4338202;33;34269;-77
2022/07/01 04:10:39;;;;;;;16.95;8.55;;;;;;;24.45;68.58;99481.22;4336545;33;34235;-76
2022/07/01 04:13:26;;;;;;;14.70;8.68;;;;;;;24.13;69.94;99473.75;4313407;33;35523;-76
2022/07/01 04:16:17;;;;;;;12.82;7.50;;;;;;;23.82;72.02;99483.84;4318425;33;35030;-76
2022/07/01 04:19:04;;;;;;;16.40;7.90;;;;;;;23.09;77.21;99479.56;4326232;33;34517;-77
2022/07/01 04:24:56;;;;;;;11.70;8.23;;;;;;;24.20;70.90;99472.94;4342051;33;35539;-77
2022/07/01 04:27:42;;;;;;;10.52;7.53;;;;;;;24.52;69.54;99472.78;4323279;33;35982;-77
2022/07/01 04:30:28;;;;;;;11.85;8.10;;;;;;;25.23;66.02;99476.28;4338306;33;35448;-76
2022/07/01 04:33:15;;;;;;;14.05;7.25;;;;;;;25.40;65.58;99466.91;4339884;33;35323;-76
2022/07/01 04:36:01;;;;;;;14.90;7.72;;;;;;;25.21;66.78;99461.88;4341599;33;35743;-76
2022/07/01 04:38:48;;;;;;;14.05;8.65;;;;;;;25.18;67.17;99465.50;4338911;33;34692;-76
2022/07/01 04:44:39;;;;;;;12.40;8.02;;;;;;;24.98;68.00;99457.63;4339880;33;34231;-76
2022/07/01 04:47:32;;;;;;;13.45;9.07;;;;;;;25.60;65.69;99460.69;4342935;33;35555;-76
2022/07/01 04:50:18;;;;;;;13.27;8.77;;;;;;;25.74;65.98;99454.91;4336932;33;36018;-75
2022/07/01 04:53:04;;;;;;;14.48;8.40;;;;;;;25.69;65.19;99467.37;4339032;33;34432;-76
2022/07/01 04:55:51;;;;;;;13.62;8.40;;;;;;;25.89;64.76;99461.97;4337927;33;34322;-76
2022/07/01 04:58:37;;;;;;;13.38;8.65;;;;;;;25.84;65.30;99458.84;4338698;33;35605;-76
2022/07/01 05:01:24;;;;;;;14.52;9.68;;;;;;;25.73;66.01;99454.13;4341521;33;35016;-76
2022/07/01 05:04:11;;;;;;;14.48;8.55;;;;;;;24.95;70.57;99461.25;4326619;32;34033;-82
2022/07/01 05:06:57;;;;;;;13.85;8.60;;;;;;;23.84;76.15;99461.09;4326079;33;33862;-85
2022/07/01 05:09:44;;;;;;;15.60;9.40;;;;;;;23.87;77.22;99466.66;4335964;32;34590;-86
2022/07/01 05:12:30;;;;;;;12.65;8.18;;;;;;;23.88;76.59;99473.88;4325889;33;35621;-87
2022/07/01 05:15:17;;;;;;;12.95;8.20;;;;;;;24.92;73.01;99478.91;4325096;32;35400;-84
2022/07/01 05:24:13;;;;;;;13.32;8.40;;;;;;;26.37;66.69;99483.41;4312586;33;34741;-84
2022/07/01 05:27:01;;;;;;;13.45;8.57;;;;;;;26.53;66.71;99477.22;4316085;33;35029;-85
2022/07/01 05:29:47;;;;;;;13.32;8.73;;;;;;;26.90;66.28;99489.50;4311686;33;34174;-85
2022/07/01 05:32:34;;;;;;;13.60;8.60;;;;;;;27.21;65.19;99476.19;4303820;33;34231;-84
2022/07/01 05:35:20;;;;;;;13.95;8.88;;;;;;;27.40;63.69;99482.28;4325806;33;34897;-85
2022/07/01 05:38:06;;;;;;;17.95;8.63;;;;;;;26.60;65.27;99479.12;4326516;33;34303;-85
2022/07/01 05:40:53;;;;;;;13.88;8.75;;;;;;;27.34;64.08;99485.56;4323312;33;34074;-84
2022/07/01 05:43:39;;;;;;;12.77;8.70;;;;;;;27.53;63.56;99486.84;4306926;33;87007;-85
2022/07/01 05:46:26;;;;;;;13.68;8.50;;;;;;;27.62;63.05;99493.94;4318255;33;33582;-84
2022/07/01 05:49:12;;;;;;;20.67;8.70;;;;;;;27.94;62.53;99496.16;4321663;33;34519;-84
2022/07/01 05:52:03;;;;;;;16.30;9.05;;;;;;;28.04;62.45;99497.97;4341559;33;34256;-85
2022/07/01 05:54:50;;;;;;;16.75;9.18;;;;;;;28.38;61.46;99494.03;4339018;33;34707;-85
2022/07/01 05:57:37;;;;;;;17.40;9.80;;;;;;;28.38;60.34;99503.28;4324045;33;36016;-85
2022/07/01 06:00:23;;;;;;;17.42;10.18;;;;;;;28.73;60.49;99508.59;4325273;33;34588;-85
2022/07/01 06:03:10;;;;;;;18.95;10.27;;;;;;;28.61;59.76;99516.50;4317143;33;34248;-86
2022/07/01 06:05:57;;;;;;;17.25;10.25;;;;;;;28.76;58.73;99502.06;4333851;33;35623;-85
2022/07/01 06:08:43;;;;;;;18.60;10.05;;;;;;;29.13;58.40;99503.63;4335221;33;34704;-85
2022/07/01 06:11:31;;;;;;;16.87;10.27;;;;;;;29.05;58.58;99517.09;4337336;33;34292;-86
2022/07/01 06:14:17;;;;;;;14.75;9.68;;;;;;;28.93;58.02;99512.91;4320781;33;33867;-86
2022/07/01 06:17:04;;;;;;;15.45;10.27;;;;;;;29.33;58.00;99523.28;4323175;33;35566;-86
2022/07/01 06:19:52;;;;;;;20.60;9.27;;;;;;;29.56;57.00;99520.25;4320790;33;34944;-86
2022/07/01 06:22:39;;;;;;;19.52;9.68;;;;;;;29.20;57.01;99520.37;4332116;33;34774;-86
2022/07/01 06:25:25;;;;;;;15.45;9.70;;;;;;;29.70;55.69;99523.97;4338825;33;34444;-84
2022/07/01 06:28:12;;;;;;;21.83;11.88;;;;;;;29.72;56.19;99529.97;4331295;33;36621;-85
2022/07/01 06:30:58;;;;;;;19.08;10.77;;;;;;;29.69;55.77;99533.69;4334961;33;35152;-86
2022/07/01 06:33:45;;;;;;;18.73;10.48;;;;;;;29.74;55.91;99533.12;4324586;32;35452;-82
2022/07/01 06:36:31;;;;;;;15.27;10.45;;;;;;;29.85;55.07;99522.31;4339171;32;34320;-85
2022/07/01 06:39:18;;;;;;;16.83;10.60;;;;;;;29.16;56.62;99524.50;4332730;33;34135;-92
2022/07/01 06:42:05;;;;;;;18.60;10.20;;;;;;;29.74;54.37;99524.62;4330114;33;35993;-89
2022/07/01 06:44:52;;;;;;;23.17;11.00;;;;;;;29.74;55.99;99525.47;4337985;33;35201;-84
2022/07/01 06:47:38;;;;;;;22.90;10.77;;;;;;;29.95;56.30;99518.41;4331328;32;33986;-84
2022/07/01 06:50:24;;;;;;;19.30;10.50;;;;;;;29.79;55.32;99521.28;4331530;32;34460;-85
2022/07/01 06:53:10;;;;;;;20.52;10.75;;;;;;;29.95;54.05;99518.41;4336329;32;35028;-83
2022/07/01 06:55:57;;;;;;;18.70;10.23;;;;;;;30.38;54.22;99533.38;4332448;33;34537;-84
2022/07/01 06:58:44;;;;;;;16.83;9.90;;;;;;;30.47;52.66;99525.81;4312806;33;33935;-89
2022/07/01 07:01:30;;;;;;;15.90;9.68;;;;;;;30.87;52.43;99522.59;4332076;33;34152;-81
2022/07/01 07:04:16;;;;;;;12.75;9.82;;;;;;;30.68;52.27;99523.56;4334956;33;35183;-77
2022/07/01 07:07:12;;;;;;;16.70;9.38;;;;;;;30.38;52.42;99522.06;4323748;33;34177;-80
2022/07/01 07:09:59;;;;;;;14.10;8.38;;;;;;;30.56;52.58;99518.69;4326299;33;34153;-83
2022/07/01 07:12:45;;;;;;;18.30;9.18;;;;;;;30.82;49.97;99517.47;4319064;33;34608;-83
2022/07/01 07:15:32;;;;;;;13.80;7.03;;;;;;;30.76;51.29;99522.09;4334344;33;35725;-82
2022/07/01 07:18:18;;;;;;;11.85;6.95;;;;;;;30.43;50.93;99516.66;4325620;33;34861;-78
2022/07/01 07:21:04;;;;;;;15.82;7.60;;;;;;;29.58;50.83;99512.13;4335194;33;34144;-79
2022/07/01 07:23:50;;;;;;;14.82;6.82;;;;;;;30.16;51.15;99516.22;4336428;33;34597;-78
2022/07/01 07:26:37;;;;;;;13.50;6.93;;;;;;;30.51;50.01;99507.94;4337061;33;34968;-82
2022/07/01 07:29:23;;;;;;;17.23;7.30;;;;;;;30.83;49.36;99513.44;4326532;33;34633;-82
2022/07/01 07:32:10;;;;;;;16.77;7.72;;;;;;;31.08;49.49;99512.63;4332236;33;33815;-78
2022/07/01 07:34:56;;;;;;;14.15;6.68;;;;;;;31.40;48.40;99510.00;4337393;33;35254;-80
2022/07/01 07:37:42;;;;;;;16.80;6.78;;;;;;;31.59;46.74;99500.41;4321622;33;34555;-76
2022/07/01 07:40:29;;;;;;;16.48;7.47;;;;;;;31.69;46.25;99504.13;4330821;33;34578;-79
2022/07/01 07:43:15;;;;;;;14.30;7.10;;;;;;;31.92;47.12;99505.75;4312002;33;35151;-79
2022/07/01 07:46:03;;;;;;;15.70;6.43;;;;;;;31.59;46.53;99506.88;4335936;32;35215;-84
2022/07/01 07:48:50;;;;;;;9.68;6.22;;;;;;;31.85;44.66;99505.97;4315245;33;34730;-79
2022/07/01 07:51:36;;;;;;;13.60;5.78;;;;;;;32.28;43.83;99505.22;4335472;33;36022;-79
2022/07/01 07:54:23;;;;;;;10.98;5.65;;;;;;;32.52;44.71;99508.38;4321007;33;34989;-78
2022/07/01 07:57:09;;;;;;;10.18;6.07;;;;;;;31.92;45.77;99505.75;4315367;33;35109;-81
2022/07/01 07:59:55;;;;;;;12.37;6.20;;;;;;;31.66;43.34;99505.81;4333821;32;34543;-77
2022/07/01 08:02:42;;;;;;;16.42;6.57;;;;;;;31.96;45.64;99512.87;4322808;33;34117;-78
2022/07/01 08:05:29;;;;;;;12.37;6.28;;;;;;;32.48;43.95;99513.41;4333447;33;32994;-78
2022/07/01 08:08:15;;;;;;;13.18;5.75;;;;;;;32.82;43.54;99520.19;4332746;33;34743;-77
2022/07/01 08:11:08;;;;;;;17.00;5.70;;;;;;;32.76;42.48;99525.66;4336232;33;35217;-77
2022/07/01 08:13:54;;;;;;;13.40;6.20;;;;;;;31.32;43.04;99515.84;4331175;33;34477;-75
2022/07/01 08:16:41;;;;;;;15.60;6.12;;;;;;;31.75;43.66;99519.28;4336503;33;33997;-80
2022/07/01 08:19:27;;;;;;;17.05;6.28;;;;;;;32.57;42.54;99527.63;4335447;33;35152;-78
2022/07/01 08:22:13;;;;;;;12.77;5.70;;;;;;;33.09;41.18;99517.44;4335837;33;36024;-81
2022/07/01 08:25:00;;;;;;;13.82;6.32;;;;;;;32.86;42.83;99529.31;4337308;33;35148;-81
2022/07/01 08:27:46;;;;;;;13.85;6.45;;;;;;;33.08;42.04;99520.75;4334609;33;34281;-79
2022/07/01 08:30:33;;;;;;;12.77;6.07;;;;;;;32.98;41.51;99522.72;4331600;33;35367;-81
2022/07/01 08:33:20;;;;;;;11.80;5.37;;;;;;;33.41;41.71;99526.66;4333744;33;34612;-82
2022/07/01 08:36:07;;;;;;;13.30;5.47;;;;;;;33.23;40.47;99520.97;4332779;33;35486;-78
2022/07/01 08:38:54;;;;;;;13.85;5.50;;;;;;;33.63;39.18;99525.78;4329062;33;35032;-78
2022/07/01 08:41:41;;;;;;;12.95;5.78;;;;;;;33.20;38.17;99525.53;4338887;33;34703;-77
2022/07/01 08:44:28;;;;;;;14.15;5.95;;;;;;;33.40;40.00;99519.41;4335528;33;34929;-80
2022/07/01 08:47:14;;;;;;;12.55;5.45;;;;;;;33.59;38.31;99528.78;4327051;33;34196;-77
2022/07/01 08:50:01;;;;;;;17.58;5.28;;;;;;;33.21;37.35;99521.41;4334952;32;34831;-80
2022/07/01 08:52:48;;;;;;;10.85;5.25;;;;;;;33.65;36.58;99524.06;4315947;33;33284;-80
2022/07/01 08:58:40;;;;;;;12.73;5.78;;;;;;;33.87;37.19;99531.62;4337230;33;35383;-82
2022/07/01 09:01:26;;;;;;;11.07;5.55;;;;;;;33.72;37.54;99525.78;4328846;33;34272;-79
2022/07/01 09:04:18;;;;;;;13.68;4.87;;;;;;;33.98;38.54;99514.88;4334916;33;36908;-79
2022/07/01 09:07:09;;;;;;;12.40;5.37;;;;;;;34.48;35.32;99509.75;4328222;33;34568;-80
2022/07/01 09:09:55;;;;;;;18.45;5.40;;;;;;;34.06;36.39;99518.22;4323176;33;34803;-82
2022/07/01 09:12:41;;;;;;;20.77;5.25;;;;;;;34.06;35.63;99512.53;4325645;32;34488;-81
2022/07/01 09:15:30;;;;;;;15.20;5.20;;;;;;;34.33;36.63;99503.19;4328958;33;34506;-76
2022/07/01 09:18:18;;;;;;;17.25;5.18;;;;;;;34.76;35.57;99499.09;4333808;33;36020;-80
2022/07/01 09:21:08;;;;;;;18.08;5.10;;;;;;;35.01;33.22;99505.59;4325620;33;34169;-83
2022/07/01 09:23:55;;;;;;;13.40;5.45;;;;;;;34.49;34.58;99502.78;4331582;33;34124;-78
2022/07/01 09:26:54;;;;;;;13.70;5.30;;;;;;;34.01;34.45;99497.69;4315782;33;34526;-82
2022/07/01 09:29:59;;;;;;;9.48;4.62;;;;;;;34.68;35.52;99500.72;4335746;33;35064;-82
2022/07/01 09:32:45;;;;;;;13.75;5.10;;;;;;;34.22;33.60;99500.84;4325632;33;34655;-80
2022/07/01 09:35:32;;;;;;;20.58;5.03;;;;;;;34.26;35.18;99498.59;4309532;33;33913;-80
2022/07/01 09:38:19;;;;;;;10.70;5.07;;;;;;;34.63;33.62;99498.53;4330633;33;35177;-81
2022/07/01 09:41:22;;;;;;;11.07;4.78;;;;;;;35.36;33.60;99500.22;4329590;33;34932;-83
2022/07/01 09:44:09;;;;;;;12.40;4.50;;;;;;;35.41;34.47;99495.91;4336067;33;35460;-81
2022/07/01 09:46:57;;;;;;;10.38;4.60;;;;;;;34.98;35.52;99500.88;4337965;33;34286;-80
2022/07/01 09:49:43;;;;;;;12.57;4.87;;;;;;;35.55;33.07;99501.69;4337288;33;35575;-81
2022/07/01 09:52:30;;;;;;;11.93;5.35;;;;;;;34.93;33.64;99500.28;4338887;33;34976;-84
2022/07/01 09:55:22;;;;;;;15.75;5.15;;;;;;;35.46;33.13;99490.31;4315452;33;36038;-81
2022/07/01 09:58:09;;;;;;;13.13;4.90;;;;;;;35.05;32.64;99494.84;4323469;33;35021;-81
2022/07/01 10:00:55;;;;;;;11.55;5.00;;;;;;;35.55;33.31;99495.19;4320290;33;34309;-81
2022/07/01 10:03:43;;;;;;;11.60;4.90;;;;;;;35.57;31.73;99490.56;4324989;33;34593;-81
2022/07/01 10:06:52;;;;;;;11.30;4.97;;;;;;;35.95;31.49;99491.06;4330867;33;34911;-81
2022/07/01 10:09:46;;;;;;;12.18;5.22;;;;;;;36.66;31.78;99486.41;4324205;33;34335;-82
2022/07/01 10:12:40;;;;;;;9.13;4.62;;;;;;;36.60;30.07;99482.63;4318136;33;35745;-81
2022/07/01 10:15:28;;;;;;;8.82;4.87;;;;;;;36.55;31.07;99481.28;4327094;33;34625;-82
2022/07/01 10:18:22;;;;;;;10.40;4.70;;;;;;;36.45;31.91;99485.50;4318778;33;35123;-83
2022/07/01 10:21:11;;;;;;;8.60;4.57;;;;;;;36.27;30.08;99480.78;4335735;33;35032;-82
2022/07/01 10:24:14;;;;;;;13.45;4.70;;;;;;;34.79;32.40;99478.22;4331286;33;34693;-82
2022/07/01 10:27:01;;;;;;;12.13;4.95;;;;;;;35.00;31.64;99478.41;4322669;33;34958;-82
2022/07/01 10:29:47;;;;;;;10.65;4.68;;;;;;;34.92;31.54;99470.25;4336084;33;34312;-83
2022/07/01 10:32:34;;;;;;;11.57;4.30;;;;;;;35.82;30.68;99465.69;4335873;33;35093;-84
2022/07/01 10:35:47;;;;;;;10.45;4.12;;;;;;;34.83;29.42;99467.44;4326418;33;34701;-82
2022/07/01 10:38:33;;;;;;;11.60;4.20;;;;;;;35.46;30.06;99481.00;4327102;33;34597;-81
2022/07/01 10:41:24;;;;;;;7.97;4.32;;;;;;;35.76;29.85;99465.56;4320970;33;34508;-84
2022/07/01 10:44:11;;;;;;;;;;;;;;;36.21;27.79;99459.94;4325308;33;34785;-81
2022/07/01 10:47:07;;;;;;;9.95;4.07;;;;;;;36.68;29.33;99460.97;4327064;33;34836;-80
2022/07/01 10:50:04;;;;;;;9.60;4.75;;;;;;;36.81;28.34;99460.66;4334109;33;35173;-84
2022/07/01 10:52:58;;;;;;;11.12;5.07;;;;;;;36.21;28.62;99463.56;4336797;33;34639;-80
2022/07/01 10:55:50;;;;;;;12.48;4.80;;;;;;;36.64;27.88;99464.03;4335675;33;33808;-79
2022/07/01 10:58:43;;;;;;;13.00;5.00;;;;;;;35.57;29.15;99467.78;4325896;33;35506;-82
2022/07/01 11:01:30;;;;;;;11.60;4.90;;;;;;;35.05;30.81;99460.69;4337147;33;35988;-81
2022/07/01 11:04:17;;;;;;;10.63;5.22;;;;;;;35.64;30.87;99466.66;4333877;33;34736;-84
2022/07/01 11:07:03;;;;;;;16.40;4.82;;;;;;;35.28;31.83;99465.63;4337868;33;34606;-82
2022/07/01 11:09:50;;;;;;;8.70;4.50;;;;;;;35.44;31.22;99464.41;4329365;33;34374;-84
2022/07/01 11:12:36;;;;;;;13.00;4.93;;;;;;;35.05;30.55;99472.88;4317200;33;33711;-81
2022/07/01 11:15:23;;;;;;;14.85;5.20;;;;;;;34.81;31.09;99464.31;4314230;33;34643;-78
2022/07/01 11:18:09;;;;;;;13.45;4.87;;;;;;;35.27;31.71;99468.97;4334967;33;34836;-80
2022/07/01 11:21:07;;;;;;;13.13;5.30;;;;;;;35.55;31.52;99463.84;4337282;33;35177;-82
2022/07/01 11:23:54;;;;;;;8.95;4.97;;;;;;;35.78;30.57;99463.03;4334321;33;34975;-76
2022/07/01 11:26:40;;;;;;;13.32;5.12;;;;;;;35.10;31.31;99455.16;4327542;33;35497;-80
2022/07/01 11:29:28;;;;;;;10.93;4.78;;;;;;;36.14;30.12;99452.56;4339493;33;34138;-78
2022/07/01 11:32:24;;;;;;;18.23;5.03;;;;;;;36.88;29.90;99441.03;4326216;33;35065;-81
2022/07/01 11:41:34;;;;;;;8.57;4.95;;;;;;;35.87;28.51;99422.25;4336546;33;34221;-86
2022/07/01 11:44:32;;;;;;;15.13;5.40;;;;;;;35.83;27.86;99421.63;4315053;33;34535;-80
2022/07/01 11:47:23;;;;;;;13.45;5.00;;;;;;;35.13;29.12;99427.75;4327602;33;35223;-81
2022/07/01 11:50:14;;;;;;;11.35;5.03;;;;;;;35.23;28.80;99426.41;4327761;33;34705;-82
2022/07/01 11:53:00;;;;;;;12.18;5.47;;;;;;;36.26;28.08;99416.44;4336791;33;33286;-79
2022/07/01 11:55:47;;;;;;;8.35;4.25;;;;;;;35.79;27.95;99415.38;4323775;33;35530;-85
2022/07/01 11:58:49;;;;;;;12.00;4.85;;;;;;;36.51;27.61;99409.31;4321028;33;36142;-86
2022/07/01 12:01:40;;;;;;;13.15;4.78;;;;;;;36.57;29.30;99413.06;4336547;33;34855;-86
2022/07/01 12:04:29;;;;;;;11.98;4.72;;;;;;;36.59;26.62;99401.94;4341899;33;35320;-86
2022/07/01 12:07:18;;;;;;;13.80;5.03;;;;;;;36.19;28.68;99391.97;4323921;33;34350;-85
2022/07/01 12:10:07;;;;;;;12.20;5.03;;;;;;;36.99;29.23;99393.94;4329777;33;33560;-85
2022/07/01 12:12:54;;;;;;;12.98;5.07;;;;;;;36.57;26.60;99403.72;4330150;33;34204;-86
2022/07/01 12:15:40;;;;;;;9.75;5.00;;;;;;;37.33;25.71;99409.44;4340070;33;34280;-86
2022/07/01 12:18:26;;;;;;;13.75;5.30;;;;;;;37.02;25.54;99390.87;4337545;33;34352;-84
2022/07/01 12:21:13;;;;;;;10.68;4.57;;;;;;;37.71;25.29;99394.06;4339815;33;33880;-85
2022/07/01 12:24:13;;;;;;;10.48;5.07;;;;;;;38.31;25.08;99382.09;4344024;33;34734;-85
2022/07/01 12:26:59;;;;;;;;;;;;;;;38.85;23.85;99383.00;4329888;33;33662;-84
2022/07/01 12:29:45;;;;;;;10.60;4.90;;;;;;;39.28;24.43;99371.47;4334999;33;34946;-84
2022/07/01 12:32:36;;;;;;;9.18;4.45;;;;;;;39.26;25.33;99370.41;4323973;33;33940;-87
2022/07/01 12:35:34;;;;;;;10.90;5.25;;;;;;;38.24;24.22;99369.03;4331208;33;35463;-83
2022/07/01 12:38:21;;;;;;;11.45;4.87;;;;;;;38.79;24.68;99373.56;4325665;33;34808;-88
2022/07/01 12:41:30;;;;;;;11.10;4.85;;;;;;;39.54;23.42;99367.66;4337795;33;35569;-87
2022/07/01 12:44:25;;;;;;;11.12;5.00;;;;;;;39.80;22.76;99368.22;4328138;33;34612;-85
2022/07/01 12:47:18;;;;;;;12.80;5.15;;;;;;;39.29;22.24;99352.97;4340609;32;37260;-85
2022/07/01 12:50:21;;;;;;;10.07;4.70;;;;;;;39.51;22.95;99351.50;4336754;33;33891;-86
2022/07/01 12:53:20;;;;;;;9.68;4.70;;;;;;;39.50;21.83;99344.19;4340718;33;34573;-84
2022/07/01 12:56:07;;;;;;;8.90;4.62;;;;;;;37.58;24.41;99350.78;4337382;33;35953;-86
2022/07/01 12:58:54;;;;;;;15.32;5.62;;;;;;;37.49;24.95;99351.75;4338758;33;35583;-85
2022/07/01 13:01:40;;;;;;;12.80;4.68;;;;;;;38.85;24.13;99342.91;4335150;33;34491;-86
2022/07/01 13:04:28;;;;;;;12.10;5.20;;;;;;;38.81;23.46;99344.44;4334259;33;34110;-83
2022/07/01 13:07:14;;;;;;;19.15;5.43;;;;;;;38.63;22.72;99342.78;4326307;33;34766;-84
2022/07/01 13:10:00;;;;;;;11.07;4.50;;;;;;;39.51;21.29;99337.16;4316611;33;35150;-83
2022/07/01 13:12:48;;;;;;;11.15;4.85;;;;;;;39.73;20.61;99340.03;4328200;33;33929;-84
2022/07/01 13:15:34;;;;;;;12.30;5.30;;;;;;;39.73;21.77;99327.78;4323487;33;34250;-87
2022/07/01 13:18:21;;;;;;;12.50;4.53;;;;;;;40.23;20.31;99327.81;4323481;33;35056;-86
2022/07/01 13:21:07;;;;;;;7.35;4.32;;;;;;;38.01;21.67;99322.34;4315115;33;33278;-88
2022/07/01 13:23:54;;;;;;;12.23;4.68;;;;;;;38.22;21.77;99320.13;4337711;32;34681;-88
2022/07/01 13:27:00;;;;;;;8.68;4.25;;;;;;;38.60;22.17;99332.38;4337678;33;34186;-86